createdAt,value
2023-02-09T00:00:08.872Z,1.99
2023-02-09T00:01:21.087Z,2.10
2023-02-09T00:01:54.793Z,2.06
2023-02-09T00:02:42.117Z,2.12
2023-02-09T00:03:22.138Z,2.11
2023-02-09T00:04:03.188Z,1.98
2023-02-09T00:04:43.082Z,2.06
2023-02-09T00:05:23.142Z,2.17
2023-02-09T00:06:07.074Z,2.22
2023-02-09T00:06:47.142Z,2.26
2023-02-09T00:07:27.084Z,2.28
2023-02-09T00:08:08.135Z,2.47
2023-02-09T00:08:49.154Z,2.39
2023-02-09T00:09:29.132Z,2.27
2023-02-09T00:10:10.071Z,2.15
2023-02-09T00:10:50.136Z,2.25
2023-02-09T00:12:06.091Z,2.26
2023-02-09T00:13:05.846Z,2.25
2023-02-09T00:13:46.074Z,2.24
2023-02-09T00:14:28.096Z,2.40
2023-02-09T00:15:02.212Z,2.31
2023-02-09T00:15:37.288Z,2.24
2023-02-09T00:16:18.184Z,2.29
2023-02-09T00:16:52.212Z,2.15
2023-02-09T00:17:35.907Z,2.24
2023-02-09T00:18:16.066Z,2.20
2023-02-09T00:18:50.149Z,2.26
2023-02-09T00:19:23.915Z,2.20
2023-02-09T00:20:04.077Z,2.38
2023-02-09T00:20:38.123Z,2.28
2023-02-09T00:21:12.046Z,2.34
2023-02-09T00:21:52.061Z,2.31
2023-02-09T00:22:26.151Z,2.26
2023-02-09T00:22:59.733Z,2.23
2023-02-09T00:23:44.075Z,2.20
2023-02-09T00:24:18.139Z,2.30
2023-02-09T00:24:52.804Z,2.38
2023-02-09T00:25:33.098Z,2.27
2023-02-09T00:26:14.122Z,2.38
2023-02-09T00:26:48.113Z,2.41
2023-02-09T00:27:28.079Z,2.38
2023-02-09T00:28:02.220Z,2.40
2023-02-09T00:28:36.169Z,2.37
2023-02-09T00:29:17.053Z,2.40
2023-02-09T00:29:51.135Z,2.38
2023-02-09T00:30:24.756Z,2.47
2023-02-09T00:31:05.137Z,2.35
2023-02-09T00:31:39.186Z,2.44
2023-02-09T00:32:12.830Z,2.38
2023-02-09T00:32:53.074Z,2.39
2023-02-09T00:33:27.139Z,2.12
2023-02-09T00:34:01.468Z,2.26
2023-02-09T00:34:41.075Z,2.25
2023-02-09T00:35:15.114Z,2.32
2023-02-09T00:35:48.816Z,2.23
2023-02-09T00:36:29.123Z,2.40
2023-02-09T00:37:03.119Z,2.43
2023-02-09T00:37:36.921Z,2.37
2023-02-09T00:38:19.080Z,2.29
2023-02-09T00:38:53.139Z,2.28
2023-02-09T00:39:26.811Z,2.43
2023-02-09T00:40:07.038Z,2.36
2023-02-09T00:40:41.101Z,2.30
2023-02-09T00:41:16.285Z,2.46
2023-02-09T00:42:14.071Z,2.21
2023-02-09T00:42:48.086Z,2.36
2023-02-09T00:43:21.842Z,2.24
2023-02-09T00:44:02.114Z,2.30
2023-02-09T00:44:36.120Z,2.45
2023-02-09T00:45:10.261Z,2.38
2023-02-09T00:45:50.058Z,2.40
2023-02-09T00:46:24.097Z,2.32
2023-02-09T00:46:57.754Z,2.19
2023-02-09T00:47:38.048Z,2.37
2023-02-09T00:48:12.240Z,2.35
2023-02-09T00:48:45.740Z,2.37
2023-02-09T00:49:27.052Z,2.38
2023-02-09T00:50:01.103Z,2.32
2023-02-09T00:50:34.809Z,2.24
2023-02-09T00:51:15.054Z,2.24
2023-02-09T00:51:49.134Z,2.24
2023-02-09T00:52:22.734Z,2.30
2023-02-09T00:53:03.084Z,2.31
2023-02-09T00:53:37.093Z,2.23
2023-02-09T00:54:10.731Z,2.30
2023-02-09T00:54:52.040Z,2.35
2023-02-09T00:55:26.116Z,2.24
2023-02-09T00:55:59.982Z,2.26
2023-02-09T00:56:40.046Z,2.29
2023-02-09T00:57:14.109Z,2.19
2023-02-09T00:57:48.723Z,2.18
2023-02-09T00:58:29.045Z,2.15
2023-02-09T00:59:03.103Z,2.18
2023-02-09T00:59:36.998Z,2.18
2023-02-09T01:00:20.014Z,2.17
2023-02-09T01:00:56.094Z,1.99
2023-02-09T01:01:29.834Z,2.08
2023-02-09T01:02:11.042Z,2.11
2023-02-09T01:02:45.102Z,2.05
2023-02-09T01:03:18.724Z,2.11
2023-02-09T01:03:59.035Z,2.07
2023-02-09T01:04:33.141Z,2.15
2023-02-09T01:05:07.369Z,2.20
2023-02-09T01:05:49.044Z,2.25
2023-02-09T01:06:23.118Z,2.14
2023-02-09T01:06:56.750Z,2.12
2023-02-09T01:07:37.030Z,2.31
2023-02-09T01:08:11.073Z,2.29
2023-02-09T01:08:44.694Z,2.29
2023-02-09T01:09:25.083Z,2.30
2023-02-09T01:10:00.012Z,2.35
2023-02-09T01:10:33.859Z,2.12
2023-02-09T01:11:17.021Z,2.35
2023-02-09T01:11:51.045Z,2.36
2023-02-09T01:12:24.699Z,2.23
2023-02-09T01:13:04.989Z,2.23
2023-02-09T01:13:39.054Z,2.27
2023-02-09T01:14:12.733Z,2.22
2023-02-09T01:14:54.033Z,2.26
2023-02-09T01:15:28.150Z,2.30
2023-02-09T01:16:13.845Z,2.36
2023-02-09T01:16:54.076Z,2.38
2023-02-09T01:17:28.067Z,2.34
2023-02-09T01:18:01.744Z,2.35
2023-02-09T01:18:43.010Z,2.32
2023-02-09T01:19:19.073Z,2.29
2023-02-09T01:20:01.252Z,2.25
2023-02-09T01:20:41.090Z,2.35
2023-02-09T01:21:26.981Z,2.32
2023-02-09T01:22:08.855Z,2.32
2023-02-09T01:22:49.009Z,2.27
2023-02-09T01:23:30.071Z,2.25
2023-02-09T01:24:10.017Z,2.26
2023-02-09T01:24:50.083Z,2.29
2023-02-09T01:25:30.022Z,2.35
2023-02-09T01:26:16.082Z,2.50
2023-02-09T01:26:55.964Z,2.45
2023-02-09T01:27:37.130Z,2.45
2023-02-09T01:28:17.012Z,2.41
2023-02-09T01:29:00.069Z,2.52
2023-02-09T01:29:46.992Z,2.45
2023-02-09T01:30:21.048Z,2.48
2023-02-09T01:31:01.073Z,2.50
2023-02-09T01:31:42.165Z,2.60
2023-02-09T01:32:23.000Z,2.58
2023-02-09T01:33:03.124Z,2.50
2023-02-09T01:33:43.033Z,2.53
2023-02-09T01:34:25.032Z,2.47
2023-02-09T01:35:04.995Z,2.45
2023-02-09T01:35:45.036Z,2.49
2023-02-09T01:36:26.009Z,2.61
2023-02-09T01:37:06.049Z,2.58
2023-02-09T01:37:45.972Z,2.57
2023-02-09T01:38:26.270Z,2.64
2023-02-09T01:39:08.976Z,2.67
2023-02-09T01:39:49.049Z,2.71
2023-02-09T01:40:29.988Z,2.66
2023-02-09T01:41:10.023Z,2.62
2023-02-09T01:41:51.021Z,2.71
2023-02-09T01:42:31.047Z,2.76
2023-02-09T01:43:10.968Z,2.71
2023-02-09T01:44:11.041Z,2.76
2023-02-09T01:44:51.971Z,2.78
2023-02-09T01:45:50.868Z,2.66
2023-02-09T01:46:35.079Z,2.80
2023-02-09T01:47:25.967Z,2.75
2023-02-09T01:48:10.060Z,2.69
2023-02-09T01:49:05.017Z,2.69
2023-02-09T01:49:39.149Z,2.63
2023-02-09T01:50:27.004Z,2.63
2023-02-09T01:51:06.036Z,2.81
2023-02-09T01:52:09.981Z,2.77
2023-02-09T01:52:50.976Z,2.83
2023-02-09T01:53:45.950Z,2.75
2023-02-09T01:54:47.996Z,2.77
2023-02-09T01:55:44.994Z,2.77
2023-02-09T01:56:42.954Z,2.83
2023-02-09T01:57:49.972Z,2.89
2023-02-09T01:58:31.972Z,2.96
2023-02-09T01:59:12.021Z,2.92
2023-02-09T01:59:56.981Z,2.95
2023-02-09T02:00:37.019Z,2.90
2023-02-09T02:01:18.020Z,2.88
2023-02-09T02:01:59.027Z,2.93
2023-02-09T02:02:40.056Z,2.85
2023-02-09T02:03:32.000Z,2.72
2023-02-09T02:04:06.003Z,2.58
2023-02-09T02:04:52.955Z,2.69
2023-02-09T02:05:26.998Z,2.71
2023-02-09T02:06:19.944Z,2.82
2023-02-09T02:06:55.021Z,2.82
2023-02-09T02:07:52.982Z,2.86
2023-02-09T02:08:53.021Z,2.87
2023-02-09T02:09:46.969Z,2.78
2023-02-09T02:10:40.951Z,2.83
2023-02-09T02:11:36.938Z,2.78
2023-02-09T02:12:31.928Z,2.86
2023-02-09T02:13:25.927Z,2.89
2023-02-09T02:14:13.018Z,2.82
2023-02-09T02:14:47.052Z,2.92
2023-02-09T02:15:40.963Z,2.91
2023-02-09T02:17:04.005Z,2.86
2023-02-09T02:18:14.911Z,2.79
2023-02-09T02:19:45.981Z,2.88
2023-02-09T02:20:50.943Z,2.80
2023-02-09T02:22:40.944Z,2.75
2023-02-09T02:23:49.948Z,2.48
2023-02-09T02:25:13.947Z,2.57
2023-02-09T02:26:52.921Z,2.46
2023-02-09T02:28:06.009Z,2.45
2023-02-09T02:29:49.942Z,2.33
2023-02-09T02:31:01.046Z,2.38
2023-02-09T02:31:53.069Z,2.38
2023-02-09T02:33:26.896Z,2.38
2023-02-09T02:34:32.008Z,2.29
2023-02-09T02:35:42.911Z,2.27
2023-02-09T02:36:47.956Z,2.42
2023-02-09T02:38:02.930Z,2.36
2023-02-09T02:39:16.895Z,2.49
2023-02-09T02:40:22.904Z,2.44
2023-02-09T02:41:59.949Z,2.31
2023-02-09T02:43:21.899Z,2.18
2023-02-09T02:44:20.919Z,2.21
2023-02-09T02:45:26.891Z,2.41
2023-02-09T02:46:40.032Z,2.39
2023-02-09T02:47:22.945Z,2.43
2023-02-09T02:48:24.004Z,2.43
2023-02-09T02:49:39.909Z,2.41
2023-02-09T02:50:25.079Z,2.49
2023-02-09T02:51:16.944Z,2.40
2023-02-09T02:51:59.968Z,2.25
2023-02-09T02:52:39.946Z,2.44
2023-02-09T02:53:21.976Z,2.42
2023-02-09T02:54:09.928Z,2.47
2023-02-09T02:55:08.999Z,2.55
2023-02-09T02:55:51.902Z,2.51
2023-02-09T02:56:56.961Z,2.65
2023-02-09T02:57:39.904Z,2.74
2023-02-09T02:58:20.940Z,2.62
2023-02-09T02:59:04.878Z,2.71
2023-02-09T02:59:57.999Z,2.70
2023-02-09T03:00:47.918Z,2.71
2023-02-09T03:01:30.996Z,2.64
2023-02-09T03:02:23.909Z,2.65
2023-02-09T03:03:11.945Z,2.48
2023-02-09T03:03:46.948Z,2.50
2023-02-09T03:04:34.908Z,2.49
2023-02-09T03:05:10.077Z,2.48
2023-02-09T03:05:57.894Z,2.40
2023-02-09T03:06:31.968Z,2.36
2023-02-09T03:07:18.916Z,2.33
2023-02-09T03:07:53.116Z,2.35
2023-02-09T03:08:32.902Z,2.25
2023-02-09T03:09:13.013Z,2.45
2023-02-09T03:10:03.319Z,2.47
2023-02-09T03:10:48.108Z,2.46
2023-02-09T03:11:33.879Z,2.50
2023-02-09T03:12:48.900Z,2.49
2023-02-09T03:14:08.911Z,2.50
2023-02-09T03:15:34.900Z,2.62
2023-02-09T03:17:05.901Z,2.66
2023-02-09T03:18:33.900Z,2.37
2023-02-09T03:19:56.993Z,2.60
2023-02-09T03:21:02.885Z,2.52
2023-02-09T03:22:18.854Z,2.44
2023-02-09T03:23:15.856Z,2.38
2023-02-09T03:24:44.872Z,2.44
2023-02-09T03:25:48.884Z,2.26
2023-02-09T03:26:38.977Z,2.25
2023-02-09T03:27:37.869Z,2.22
2023-02-09T03:28:25.001Z,2.11
2023-02-09T03:29:05.866Z,2.16
2023-02-09T03:29:40.235Z,2.12
2023-02-09T03:30:28.896Z,2.07
2023-02-09T03:31:10.926Z,2.18
2023-02-09T03:31:52.044Z,2.08
2023-02-09T03:32:34.881Z,2.07
2023-02-09T03:33:32.994Z,2.02
2023-02-09T03:34:13.862Z,1.92
2023-02-09T03:34:54.971Z,1.93
2023-02-09T03:35:46.869Z,1.91
2023-02-09T03:36:34.900Z,1.98
2023-02-09T03:37:08.551Z,1.84
2023-02-09T03:37:55.861Z,2.01
2023-02-09T03:38:29.864Z,1.93
2023-02-09T03:39:17.855Z,2.09
2023-02-09T03:39:51.554Z,1.91
2023-02-09T03:40:39.859Z,1.85
2023-02-09T03:41:13.611Z,1.90
2023-02-09T03:41:54.893Z,1.74
2023-02-09T03:42:28.907Z,1.72
2023-02-09T03:43:02.536Z,1.85
2023-02-09T03:44:01.857Z,1.87
2023-02-09T03:44:35.871Z,1.73
2023-02-09T03:45:09.663Z,1.66
2023-02-09T03:45:49.855Z,1.64
2023-02-09T03:46:23.942Z,1.61
2023-02-09T03:47:10.878Z,1.64
2023-02-09T03:47:50.912Z,1.59
2023-02-09T03:48:31.863Z,1.44
2023-02-09T03:49:14.778Z,1.53
2023-02-09T03:49:54.843Z,1.48
2023-02-09T03:50:34.927Z,1.66
2023-02-09T03:51:14.827Z,1.46
2023-02-09T03:51:55.903Z,1.53
2023-02-09T03:52:39.866Z,1.60
2023-02-09T03:53:20.003Z,1.68
2023-02-09T03:53:59.819Z,1.52
2023-02-09T03:54:40.928Z,1.71
2023-02-09T03:55:21.009Z,1.64
2023-02-09T03:56:00.902Z,1.68
2023-02-09T03:56:43.810Z,1.57
2023-02-09T03:57:23.904Z,1.60
2023-02-09T03:58:03.830Z,1.60
2023-02-09T03:58:44.898Z,1.63
2023-02-09T03:59:24.837Z,1.48
2023-02-09T04:00:04.886Z,1.43
2023-02-09T04:00:45.277Z,1.54
2023-02-09T04:01:25.899Z,1.52
2023-02-09T04:02:05.829Z,1.52
2023-02-09T04:02:45.918Z,1.43
2023-02-09T04:03:25.844Z,1.65
2023-02-09T04:04:09.857Z,1.48
2023-02-09T04:04:49.839Z,1.61
2023-02-09T04:05:29.891Z,1.41
2023-02-09T04:06:10.839Z,1.46
2023-02-09T04:06:51.925Z,1.40
2023-02-09T04:07:31.820Z,1.39
2023-02-09T04:08:11.864Z,1.36
2023-02-09T04:08:53.822Z,1.45
2023-02-09T04:09:34.996Z,1.32
2023-02-09T04:10:15.830Z,1.49
2023-02-09T04:10:56.060Z,1.51
2023-02-09T04:11:35.840Z,1.25
2023-02-09T04:12:16.063Z,1.22
2023-02-09T04:12:56.820Z,1.36
2023-02-09T04:13:36.870Z,1.36
2023-02-09T04:14:16.818Z,1.31
2023-02-09T04:14:56.845Z,1.23
2023-02-09T04:15:36.806Z,1.41
2023-02-09T04:16:18.226Z,1.25
2023-02-09T04:16:52.470Z,1.26
2023-02-09T04:17:33.813Z,1.18
2023-02-09T04:18:07.879Z,1.26
2023-02-09T04:18:41.550Z,1.20
2023-02-09T04:19:22.811Z,1.21
2023-02-09T04:19:56.905Z,1.40
2023-02-09T04:20:30.492Z,1.32
2023-02-09T04:21:11.908Z,1.10
2023-02-09T04:21:45.869Z,1.22
2023-02-09T04:22:19.487Z,1.38
2023-02-09T04:22:59.791Z,1.40
2023-02-09T04:23:33.886Z,1.29
2023-02-09T04:24:08.189Z,1.26
2023-02-09T04:24:47.865Z,1.37
2023-02-09T04:25:22.021Z,1.29
2023-02-09T04:25:55.504Z,1.21
2023-02-09T04:26:35.802Z,1.23
2023-02-09T04:27:09.849Z,1.26
2023-02-09T04:27:43.514Z,1.28
2023-02-09T04:28:23.830Z,1.25
2023-02-09T04:28:57.850Z,1.30
2023-02-09T04:29:32.533Z,1.18
2023-02-09T04:30:13.797Z,1.16
2023-02-09T04:30:48.115Z,1.09
2023-02-09T04:31:22.670Z,1.20
2023-02-09T04:32:02.868Z,1.13
2023-02-09T04:32:36.916Z,1.22
2023-02-09T04:33:13.158Z,1.04
2023-02-09T04:33:53.800Z,1.19
2023-02-09T04:34:27.855Z,1.22
2023-02-09T04:35:01.475Z,1.19
2023-02-09T04:35:41.820Z,1.14
2023-02-09T04:36:16.868Z,1.19
2023-02-09T04:36:51.269Z,1.35
2023-02-09T04:37:30.808Z,1.24
2023-02-09T04:38:04.871Z,1.16
2023-02-09T04:38:38.667Z,1.26
2023-02-09T04:39:18.794Z,1.16
2023-02-09T04:39:52.845Z,1.27
2023-02-09T04:40:26.473Z,1.08
2023-02-09T04:41:08.815Z,1.20
2023-02-09T04:41:42.881Z,1.11
2023-02-09T04:42:17.472Z,1.12
2023-02-09T04:42:57.758Z,1.11
2023-02-09T04:43:31.834Z,1.14
2023-02-09T04:44:05.565Z,1.18
2023-02-09T04:44:45.786Z,1.09
2023-02-09T04:45:19.872Z,1.01
2023-02-09T04:45:54.275Z,1.06
2023-02-09T04:46:34.783Z,1.09
2023-02-09T04:47:08.836Z,1.06
2023-02-09T04:47:55.768Z,1.13
2023-02-09T04:48:31.891Z,1.25
2023-02-09T04:49:18.775Z,1.21
2023-02-09T04:49:52.894Z,1.33
2023-02-09T04:50:40.809Z,1.18
2023-02-09T04:51:14.886Z,1.25
2023-02-09T04:51:54.818Z,1.20
2023-02-09T04:52:34.830Z,1.46
2023-02-09T04:53:15.805Z,1.30
2023-02-09T04:53:55.841Z,1.39
2023-02-09T04:54:36.766Z,1.30
2023-02-09T04:55:16.823Z,1.25
2023-02-09T04:55:58.747Z,1.36
2023-02-09T04:56:39.017Z,1.17
2023-02-09T04:57:37.837Z,1.18
2023-02-09T04:58:39.611Z,1.24
2023-02-09T04:59:38.790Z,1.18
2023-02-09T05:00:19.832Z,1.30
2023-02-09T05:01:02.811Z,1.30
2023-02-09T05:01:42.842Z,1.16
2023-02-09T05:02:23.749Z,1.19
2023-02-09T05:03:03.799Z,1.09
2023-02-09T05:03:37.927Z,1.18
2023-02-09T05:04:24.789Z,1.24
2023-02-09T05:04:58.834Z,1.13
2023-02-09T05:05:47.774Z,1.04
2023-02-09T05:06:21.825Z,1.08
2023-02-09T05:07:08.771Z,1.16
2023-02-09T05:07:42.813Z,1.07
2023-02-09T05:08:22.766Z,0.91
2023-02-09T05:09:02.972Z,1.08
2023-02-09T05:09:42.747Z,1.10
2023-02-09T05:10:23.802Z,1.10
2023-02-09T05:11:04.791Z,1.28
2023-02-09T05:11:44.872Z,1.33
2023-02-09T05:12:24.765Z,1.14
2023-02-09T05:13:04.820Z,1.13
2023-02-09T05:13:45.775Z,1.31
2023-02-09T05:14:25.811Z,1.17
2023-02-09T05:15:05.740Z,1.22
2023-02-09T05:15:46.798Z,1.30
2023-02-09T05:16:26.795Z,1.04
2023-02-09T05:17:06.861Z,1.04
2023-02-09T05:17:46.765Z,0.94
2023-02-09T05:18:26.839Z,1.01
2023-02-09T05:19:06.787Z,1.05
2023-02-09T05:19:46.798Z,1.20
2023-02-09T05:20:27.738Z,1.16
2023-02-09T05:21:07.775Z,1.05
2023-02-09T05:21:47.734Z,1.19
2023-02-09T05:22:27.799Z,0.91
2023-02-09T05:23:08.752Z,0.87
2023-02-09T05:23:48.843Z,1.00
2023-02-09T05:24:28.751Z,0.93
2023-02-09T05:25:08.796Z,0.98
2023-02-09T05:25:48.748Z,0.90
2023-02-09T05:26:28.846Z,0.88
2023-02-09T05:27:08.736Z,1.04
2023-02-09T05:27:48.798Z,0.91
2023-02-09T05:28:30.748Z,0.82
2023-02-09T05:29:10.834Z,0.86
2023-02-09T05:29:50.799Z,0.86
2023-02-09T05:30:31.223Z,1.02
2023-02-09T05:31:11.754Z,1.02
2023-02-09T05:31:51.807Z,0.95
2023-02-09T05:32:31.724Z,1.05
2023-02-09T05:33:11.802Z,1.14
2023-02-09T05:33:51.737Z,0.92
2023-02-09T05:34:31.800Z,1.12
2023-02-09T05:35:12.741Z,1.05
2023-02-09T05:35:52.808Z,0.95
2023-02-09T05:36:33.718Z,1.08
2023-02-09T05:37:13.780Z,0.74
2023-02-09T05:37:54.712Z,0.96
2023-02-09T05:38:34.764Z,0.86
2023-02-09T05:39:14.710Z,0.88
2023-02-09T05:39:54.836Z,0.75
2023-02-09T05:40:34.729Z,0.82
2023-02-09T05:41:36.582Z,0.89
2023-02-09T05:42:22.721Z,0.88
2023-02-09T05:43:03.376Z,0.67
2023-02-09T05:43:44.712Z,0.68
2023-02-09T05:44:24.760Z,0.54
2023-02-09T05:45:05.708Z,0.68
2023-02-09T05:45:52.803Z,0.68
2023-02-09T05:46:46.711Z,0.87
2023-02-09T05:47:40.691Z,0.84
2023-02-09T05:48:34.685Z,0.88
2023-02-09T05:49:28.708Z,0.93
2023-02-09T05:50:22.901Z,0.65
2023-02-09T05:51:09.725Z,0.79
2023-02-09T05:51:43.760Z,0.81
2023-02-09T05:52:30.733Z,0.96
2023-02-09T05:53:06.756Z,0.77
2023-02-09T05:53:53.751Z,0.75
2023-02-09T05:54:27.748Z,0.90
2023-02-09T05:55:14.684Z,0.97
2023-02-09T05:55:48.763Z,1.03
2023-02-09T05:56:29.724Z,1.03
2023-02-09T05:57:10.801Z,0.98
2023-02-09T05:57:50.700Z,0.93
2023-02-09T05:58:30.744Z,0.83
2023-02-09T05:59:11.676Z,0.99
2023-02-09T05:59:51.746Z,0.82
2023-02-09T06:00:33.687Z,0.86
2023-02-09T06:01:13.733Z,0.87
2023-02-09T06:01:53.713Z,1.10
2023-02-09T06:02:33.877Z,1.05
2023-02-09T06:03:14.743Z,1.12
2023-02-09T06:03:54.848Z,1.27
2023-02-09T06:04:35.702Z,1.24
2023-02-09T06:05:15.806Z,1.19
2023-02-09T06:05:55.666Z,1.13
2023-02-09T06:06:35.766Z,1.32
2023-02-09T06:07:15.693Z,1.25
2023-02-09T06:07:55.807Z,1.38
2023-02-09T06:08:36.723Z,1.33
2023-02-09T06:09:16.834Z,1.27
2023-02-09T06:09:56.714Z,1.26
2023-02-09T06:10:36.846Z,1.26
2023-02-09T06:11:16.843Z,1.29
2023-02-09T06:11:56.796Z,1.36
2023-02-09T06:12:37.711Z,1.35
2023-02-09T06:13:17.730Z,1.31
2023-02-09T06:13:57.675Z,1.38
2023-02-09T06:14:37.766Z,1.30
2023-02-09T06:15:18.712Z,1.42
2023-02-09T06:15:58.791Z,1.51
2023-02-09T06:16:39.734Z,1.53
2023-02-09T06:17:19.784Z,1.55
2023-02-09T06:17:59.724Z,1.60
2023-02-09T06:18:39.805Z,1.45
2023-02-09T06:19:23.643Z,1.42
2023-02-09T06:20:03.747Z,1.37
2023-02-09T06:20:45.026Z,1.62
2023-02-09T06:21:25.742Z,1.64
2023-02-09T06:22:05.914Z,1.50
2023-02-09T06:22:45.733Z,1.50
2023-02-09T06:23:25.684Z,1.40
2023-02-09T06:24:05.728Z,1.33
2023-02-09T06:24:46.690Z,1.30
2023-02-09T06:25:26.732Z,1.29
2023-02-09T06:26:06.686Z,1.41
2023-02-09T06:26:48.130Z,1.42
2023-02-09T06:27:27.666Z,1.43
2023-02-09T06:28:08.804Z,1.52
2023-02-09T06:28:50.708Z,1.57
2023-02-09T06:29:44.665Z,1.50
2023-02-09T06:30:38.683Z,1.72
2023-02-09T06:31:32.776Z,1.54
2023-02-09T06:32:26.669Z,1.63
2023-02-09T06:33:23.652Z,1.67
2023-02-09T06:34:12.698Z,1.70
2023-02-09T06:34:46.748Z,1.81
2023-02-09T06:35:33.663Z,1.84
2023-02-09T06:36:07.724Z,1.78
2023-02-09T06:36:54.671Z,1.70
2023-02-09T06:37:28.729Z,1.52
2023-02-09T06:38:16.623Z,1.69
2023-02-09T06:38:50.742Z,1.69
2023-02-09T06:39:37.707Z,1.82
2023-02-09T06:40:11.688Z,1.76
2023-02-09T06:40:58.694Z,1.77
2023-02-09T06:41:32.718Z,1.92
2023-02-09T06:42:20.080Z,1.84
2023-02-09T06:42:53.697Z,1.87
2023-02-09T06:43:40.640Z,1.93
2023-02-09T06:44:14.704Z,1.70
2023-02-09T06:45:05.692Z,1.96
2023-02-09T06:45:39.705Z,1.98
2023-02-09T06:46:26.670Z,2.13
2023-02-09T06:47:00.879Z,2.16
2023-02-09T06:47:53.656Z,2.18
2023-02-09T06:48:27.947Z,2.19
2023-02-09T06:49:14.624Z,2.19
2023-02-09T06:49:48.729Z,2.23
2023-02-09T06:50:31.667Z,2.22
2023-02-09T06:51:19.692Z,2.23
2023-02-09T06:51:59.647Z,2.29
2023-02-09T06:52:39.710Z,2.24
2023-02-09T06:53:19.639Z,2.28
2023-02-09T06:54:00.729Z,2.18
2023-02-09T06:54:40.625Z,2.26
2023-02-09T06:55:21.736Z,2.18
2023-02-09T06:56:07.663Z,2.13
2023-02-09T06:56:41.308Z,2.22
2023-02-09T06:57:28.640Z,2.23
2023-02-09T06:58:02.339Z,2.14
2023-02-09T06:58:51.625Z,2.13
2023-02-09T06:59:25.529Z,2.10
2023-02-09T07:00:12.613Z,2.13
2023-02-09T07:00:46.665Z,2.11
2023-02-09T07:01:26.669Z,2.19
2023-02-09T07:02:00.726Z,2.20
2023-02-09T07:02:34.983Z,2.17
2023-02-09T07:03:15.636Z,2.18
2023-02-09T07:03:50.704Z,2.18
2023-02-09T07:04:24.321Z,2.11
2023-02-09T07:05:04.638Z,2.12
2023-02-09T07:05:38.656Z,2.07
2023-02-09T07:06:18.795Z,2.08
2023-02-09T07:06:58.654Z,2.03
2023-02-09T07:07:32.729Z,2.07
2023-02-09T07:08:07.339Z,2.07
2023-02-09T07:08:48.620Z,2.12
2023-02-09T07:09:22.729Z,2.08
2023-02-09T07:09:57.365Z,2.15
2023-02-09T07:10:37.614Z,2.03
2023-02-09T07:11:13.683Z,2.12
2023-02-09T07:11:47.337Z,2.13
2023-02-09T07:12:27.654Z,2.09
2023-02-09T07:13:03.684Z,2.14
2023-02-09T07:13:37.507Z,2.07
2023-02-09T07:14:18.632Z,2.03
2023-02-09T07:14:52.704Z,1.89
2023-02-09T07:15:26.292Z,2.10
2023-02-09T07:16:08.707Z,2.13
2023-02-09T07:16:42.684Z,2.08
2023-02-09T07:17:16.298Z,2.06
2023-02-09T07:17:56.618Z,2.14
2023-02-09T07:18:31.736Z,2.10
2023-02-09T07:19:05.325Z,1.95
2023-02-09T07:19:45.594Z,1.94
2023-02-09T07:20:19.739Z,1.70
2023-02-09T07:21:04.641Z,1.84
2023-02-09T07:21:44.637Z,1.88
2023-02-09T07:22:18.747Z,1.88
2023-02-09T07:22:52.311Z,1.80
2023-02-09T07:23:33.683Z,1.91
2023-02-09T07:24:07.663Z,1.85
2023-02-09T07:24:41.285Z,1.78
2023-02-09T07:25:21.608Z,1.71
2023-02-09T07:25:55.684Z,1.83
2023-02-09T07:26:30.325Z,1.87
2023-02-09T07:27:12.596Z,1.78
2023-02-09T07:27:50.771Z,1.72
2023-02-09T07:28:24.369Z,1.71
2023-02-09T07:29:04.631Z,1.49
2023-02-09T07:29:39.683Z,1.59
2023-02-09T07:30:15.175Z,1.57
2023-02-09T07:31:01.746Z,1.69
2023-02-09T07:31:35.851Z,1.64
2023-02-09T07:32:09.414Z,1.69
2023-02-09T07:32:49.565Z,1.70
2023-02-09T07:33:23.692Z,1.66
2023-02-09T07:33:58.434Z,1.66
2023-02-09T07:34:39.662Z,1.78
2023-02-09T07:35:13.622Z,1.78
2023-02-09T07:35:48.663Z,1.69
2023-02-09T07:36:29.599Z,1.70
2023-02-09T07:37:03.647Z,1.71
2023-02-09T07:37:37.272Z,1.79
2023-02-09T07:38:18.583Z,1.77
2023-02-09T07:38:52.775Z,1.84
2023-02-09T07:39:27.399Z,1.87
2023-02-09T07:40:07.597Z,1.92
2023-02-09T07:40:46.824Z,1.91
2023-02-09T07:41:27.771Z,1.80
2023-02-09T07:42:08.565Z,1.88
2023-02-09T07:42:42.690Z,1.80
2023-02-09T07:43:16.367Z,1.92
2023-02-09T07:43:56.589Z,1.97
2023-02-09T07:44:31.688Z,1.90
2023-02-09T07:45:05.678Z,1.98
2023-02-09T07:45:46.961Z,1.95
2023-02-09T07:46:25.408Z,1.96
2023-02-09T07:46:59.276Z,1.95
2023-02-09T07:47:41.612Z,1.95
2023-02-09T07:48:17.697Z,2.00
2023-02-09T07:48:51.422Z,1.93
2023-02-09T07:49:31.583Z,1.75
2023-02-09T07:50:05.834Z,1.95
2023-02-09T07:50:39.774Z,1.97
2023-02-09T07:51:26.564Z,2.13
2023-02-09T07:52:00.595Z,2.11
2023-02-09T07:52:34.273Z,1.96
2023-02-09T07:53:14.565Z,1.84
2023-02-09T07:53:48.625Z,1.90
2023-02-09T07:54:22.357Z,1.97
2023-02-09T07:55:02.552Z,1.81
2023-02-09T07:55:36.671Z,1.83
2023-02-09T07:56:10.279Z,1.84
2023-02-09T07:56:50.558Z,1.92
2023-02-09T07:57:24.612Z,1.95
2023-02-09T07:57:58.382Z,2.10
2023-02-09T07:58:39.587Z,2.04
2023-02-09T07:59:14.634Z,2.09
2023-02-09T07:59:48.253Z,2.29
2023-02-09T08:00:29.579Z,2.24
2023-02-09T08:01:14.681Z,2.37
2023-02-09T08:01:48.273Z,2.44
2023-02-09T08:02:39.589Z,2.39
2023-02-09T08:03:13.620Z,2.43
2023-02-09T08:03:49.359Z,2.40
2023-02-09T08:04:30.551Z,2.32
2023-02-09T08:05:06.654Z,2.38
2023-02-09T08:06:03.235Z,2.35
2023-02-09T08:06:52.556Z,2.36
2023-02-09T08:07:26.672Z,2.30
2023-02-09T08:08:07.599Z,2.36
2023-02-09T08:08:47.684Z,2.19
2023-02-09T08:09:27.545Z,2.39
2023-02-09T08:10:07.586Z,2.24
2023-02-09T08:10:52.376Z,2.19
2023-02-09T08:11:45.586Z,2.21
2023-02-09T08:12:26.602Z,2.17
2023-02-09T08:13:14.603Z,2.04
2023-02-09T08:13:48.506Z,2.09
2023-02-09T08:14:58.548Z,2.33
2023-02-09T08:15:41.955Z,2.35
2023-02-09T08:16:32.605Z,2.36
2023-02-09T08:17:27.885Z,2.21
2023-02-09T08:18:17.753Z,2.33
2023-02-09T08:19:00.190Z,2.36
2023-02-09T08:19:48.548Z,2.40
2023-02-09T08:20:25.423Z,2.38
2023-02-09T08:21:12.546Z,2.31
2023-02-09T08:21:48.731Z,2.34
2023-02-09T08:22:37.547Z,2.31
2023-02-09T08:23:16.729Z,2.42
2023-02-09T08:24:00.544Z,2.38
2023-02-09T08:24:34.656Z,2.32
2023-02-09T08:25:09.003Z,2.39
2023-02-09T08:25:48.809Z,2.33
2023-02-09T08:26:22.648Z,2.35
2023-02-09T08:26:56.211Z,2.39
2023-02-09T08:27:37.557Z,2.44
2023-02-09T08:28:13.834Z,2.38
2023-02-09T08:28:48.270Z,2.28
2023-02-09T08:29:28.551Z,2.35
2023-02-09T08:30:02.578Z,2.42
2023-02-09T08:30:36.644Z,2.50
2023-02-09T08:31:22.622Z,2.62
2023-02-09T08:31:56.641Z,2.55
2023-02-09T08:32:31.211Z,2.66
2023-02-09T08:33:11.519Z,2.51
2023-02-09T08:33:45.685Z,2.59
2023-02-09T08:34:19.514Z,2.43
2023-02-09T08:34:59.580Z,2.53
2023-02-09T08:35:33.599Z,2.55
2023-02-09T08:36:10.399Z,2.66
2023-02-09T08:36:50.520Z,2.48
2023-02-09T08:37:24.604Z,2.48
2023-02-09T08:38:02.882Z,2.61
2023-02-09T08:38:42.759Z,2.63
2023-02-09T08:39:16.776Z,2.55
2023-02-09T08:39:50.227Z,2.73
2023-02-09T08:40:31.567Z,2.61
2023-02-09T08:41:13.582Z,2.66
2023-02-09T08:41:47.262Z,2.62
2023-02-09T08:42:27.527Z,2.73
2023-02-09T08:43:01.572Z,2.69
2023-02-09T08:43:35.737Z,2.88
2023-02-09T08:44:16.553Z,2.82
2023-02-09T08:44:50.586Z,2.89
2023-02-09T08:45:24.774Z,2.87
2023-02-09T08:46:14.644Z,2.73
2023-02-09T08:46:48.726Z,2.93
2023-02-09T08:47:22.867Z,2.83
2023-02-09T08:48:03.739Z,2.88
2023-02-09T08:48:43.566Z,2.88
2023-02-09T08:49:17.200Z,2.96
2023-02-09T08:49:57.521Z,3.02
2023-02-09T08:50:31.577Z,3.09
2023-02-09T08:51:06.496Z,3.03
2023-02-09T08:51:46.528Z,2.99
2023-02-09T08:52:20.634Z,3.03
2023-02-09T08:52:57.925Z,2.76
2023-02-09T08:53:37.716Z,2.90
2023-02-09T08:54:11.579Z,2.97
2023-02-09T08:54:45.225Z,2.75
2023-02-09T08:55:25.499Z,2.77
2023-02-09T08:56:00.603Z,2.92
2023-02-09T08:56:34.224Z,2.65
2023-02-09T08:57:15.521Z,3.01
2023-02-09T08:57:49.592Z,3.04
2023-02-09T08:58:24.778Z,3.17
2023-02-09T08:59:04.509Z,3.14
2023-02-09T08:59:38.589Z,3.32
2023-02-09T09:00:13.281Z,3.22
2023-02-09T09:00:54.562Z,3.31
2023-02-09T09:01:28.618Z,3.38
2023-02-09T09:02:02.233Z,3.42
2023-02-09T09:02:42.509Z,3.49
2023-02-09T09:03:16.841Z,3.44
2023-02-09T09:03:51.228Z,3.40
2023-02-09T09:04:32.558Z,3.40
2023-02-09T09:05:06.593Z,3.25
2023-02-09T09:05:41.198Z,3.26
2023-02-09T09:06:21.530Z,3.13
2023-02-09T09:06:55.593Z,3.18
2023-02-09T09:07:29.204Z,3.23
2023-02-09T09:08:10.506Z,3.34
2023-02-09T09:08:45.551Z,3.44
2023-02-09T09:09:19.218Z,3.50
2023-02-09T09:10:00.520Z,3.46
2023-02-09T09:10:34.680Z,3.42
2023-02-09T09:11:12.843Z,3.38
2023-02-09T09:11:52.522Z,3.32
2023-02-09T09:12:26.585Z,3.51
2023-02-09T09:13:00.225Z,3.55
2023-02-09T09:13:40.510Z,3.35
2023-02-09T09:14:14.539Z,3.29
2023-02-09T09:14:48.237Z,3.44
2023-02-09T09:15:28.481Z,3.46
2023-02-09T09:16:04.872Z,3.36
2023-02-09T09:16:39.253Z,3.58